createdAt,value
2022-12-23T00:03:35.186Z,3.28
2022-12-23T00:08:37.155Z,2.78
2022-12-23T00:13:57.456Z,2.60
2022-12-23T00:24:00.707Z,2.20
2022-12-23T00:29:02.365Z,2.15
2022-12-23T00:34:04.034Z,1.70
2022-12-23T00:39:24.351Z,1.92
2022-12-23T00:44:26.532Z,1.85
2022-12-23T00:49:43.220Z,2.25
2022-12-23T00:54:44.913Z,2.25
2022-12-23T00:59:46.587Z,2.25
2022-12-23T01:05:06.714Z,2.55
2022-12-23T01:10:08.898Z,2.65
2022-12-23T01:15:10.723Z,2.58
2022-12-23T01:20:12.906Z,2.33
2022-12-23T01:25:14.727Z,2.53
2022-12-23T01:30:16.590Z,2.72
2022-12-23T01:35:18.268Z,4.07
2022-12-23T01:40:20.071Z,3.65
2022-12-23T01:45:31.043Z,2.95
2022-12-23T01:50:34.657Z,3.88
2022-12-23T01:55:43.759Z,4.47
2022-12-23T02:01:04.298Z,4.60
2022-12-23T02:06:25.096Z,5.30
2022-12-23T02:11:53.603Z,5.80
2022-12-23T02:17:14.819Z,4.88
2022-12-23T02:22:36.698Z,4.32
2022-12-23T02:28:10.750Z,4.13
2022-12-23T02:33:23.937Z,3.78
2022-12-23T02:38:50.624Z,7.22
2022-12-23T02:44:02.540Z,4.47
2022-12-23T02:49:16.240Z,4.38
2022-12-23T02:54:24.830Z,3.78
2022-12-23T02:59:30.552Z,3.08
2022-12-23T03:04:32.276Z,3.00
2022-12-23T03:10:09.770Z,2.65
2022-12-23T03:15:39.091Z,2.60
2022-12-23T03:21:03.661Z,2.38
2022-12-23T03:26:19.666Z,2.53
2022-12-23T03:31:27.019Z,2.35
2022-12-23T03:36:33.342Z,2.92
2022-12-23T03:41:40.882Z,2.80
2022-12-23T03:47:15.463Z,2.90
2022-12-23T03:52:22.272Z,2.95
2022-12-23T03:57:31.644Z,2.63
2022-12-23T04:02:33.374Z,2.70
2022-12-23T04:07:39.426Z,2.33
2022-12-23T04:12:41.371Z,2.20
2022-12-23T04:17:42.982Z,1.98
2022-12-23T04:22:44.686Z,1.90
2022-12-23T04:27:46.578Z,1.73
2022-12-23T04:32:48.168Z,1.45
2022-12-23T04:37:49.977Z,1.77
2022-12-23T04:42:51.600Z,1.80
2022-12-23T04:47:54.562Z,1.95
2022-12-23T04:52:56.287Z,1.65
2022-12-23T04:57:58.000Z,2.00
2022-12-23T05:02:59.741Z,2.47
2022-12-23T05:08:06.727Z,2.20
2022-12-23T05:13:08.385Z,2.53
2022-12-23T05:18:09.972Z,2.25
2022-12-23T05:23:11.994Z,2.58
2022-12-23T05:28:13.955Z,3.08
2022-12-23T05:33:15.882Z,3.58
2022-12-23T05:38:18.156Z,3.20
2022-12-23T05:43:19.817Z,3.92
2022-12-23T05:48:21.960Z,4.68
2022-12-23T05:53:24.609Z,4.43
2022-12-23T05:58:28.078Z,4.90
2022-12-23T06:03:30.116Z,4.85
2022-12-23T06:08:32.163Z,4.40
2022-12-23T06:13:33.842Z,4.88
2022-12-23T06:18:35.443Z,5.65
2022-12-23T06:23:37.874Z,5.38
2022-12-23T06:28:39.488Z,5.25
2022-12-23T06:33:41.153Z,5.22
2022-12-23T06:38:42.810Z,4.82
2022-12-23T06:43:44.457Z,4.90
2022-12-23T06:48:46.143Z,4.78
2022-12-23T06:53:47.793Z,4.60
2022-12-23T06:58:49.477Z,5.38
2022-12-23T07:03:51.114Z,6.18
2022-12-23T07:08:52.859Z,6.70
2022-12-23T07:13:54.570Z,7.13
2022-12-23T07:18:56.229Z,7.90
2022-12-23T07:23:57.930Z,8.30
2022-12-23T07:28:59.517Z,8.90
2022-12-23T07:34:01.188Z,10.15
2022-12-23T07:39:02.826Z,10.13
2022-12-23T07:44:04.568Z,11.52
2022-12-23T07:49:06.238Z,12.50
2022-12-23T07:54:07.879Z,13.50
2022-12-23T07:59:09.525Z,13.75
2022-12-23T08:04:11.112Z,13.00
2022-12-23T08:09:12.834Z,14.18
2022-12-23T08:14:14.497Z,12.70
2022-12-23T08:19:16.290Z,12.68
2022-12-23T08:24:17.919Z,13.00
2022-12-23T08:29:19.531Z,12.48
2022-12-23T08:34:21.171Z,13.25
2022-12-23T08:39:22.895Z,15.10
2022-12-23T08:44:27.877Z,12.82
2022-12-23T08:49:29.757Z,12.00
2022-12-23T08:54:31.458Z,13.15
2022-12-23T08:59:33.091Z,13.57
2022-12-23T09:04:36.540Z,13.85
2022-12-23T09:09:38.544Z,14.65
2022-12-23T09:14:40.359Z,14.63
2022-12-23T09:19:44.798Z,13.85
2022-12-23T09:24:49.810Z,14.18
2022-12-23T09:29:51.579Z,14.73
2022-12-23T09:34:53.187Z,15.93
2022-12-23T09:39:55.556Z,13.85
2022-12-23T09:45:40.366Z,15.45
2022-12-23T09:50:43.498Z,16.05
2022-12-23T09:55:51.035Z,17.00
2022-12-23T10:01:01.870Z,15.73
2022-12-23T10:06:09.498Z,16.15
2022-12-23T10:11:34.608Z,16.05
2022-12-23T10:16:42.804Z,16.85
2022-12-23T10:21:52.091Z,17.85
2022-12-23T10:26:53.759Z,17.63
2022-12-23T10:32:11.541Z,17.98
2022-12-23T10:37:31.850Z,16.88
2022-12-23T10:42:51.721Z,16.13
2022-12-23T10:48:14.427Z,17.30
2022-12-23T10:53:44.716Z,15.80
2022-12-23T10:58:51.798Z,13.43
2022-12-23T11:03:59.193Z,11.98
2022-12-23T11:09:02.695Z,11.98
2022-12-23T11:14:04.371Z,12.60
2022-12-23T11:19:14.569Z,10.48
2022-12-23T11:24:18.577Z,12.25
2022-12-23T11:29:28.055Z,11.95
2022-12-23T11:34:37.356Z,13.23
2022-12-23T11:39:39.415Z,9.97
2022-12-23T11:44:48.838Z,8.70
2022-12-23T11:50:03.209Z,9.73
2022-12-23T11:55:06.974Z,8.55
2022-12-23T12:00:21.027Z,9.23
2022-12-23T12:05:32.795Z,9.02
2022-12-23T12:10:37.403Z,10.23
2022-12-23T12:16:09.194Z,11.45
2022-12-23T12:21:15.223Z,10.75
2022-12-23T12:26:27.141Z,10.40
2022-12-23T12:31:50.758Z,11.15
2022-12-23T12:37:03.307Z,10.88
2022-12-23T12:42:16.192Z,11.00
2022-12-23T12:47:53.376Z,11.65
2022-12-23T12:53:02.690Z,12.00
2022-12-23T12:58:17.879Z,11.65
2022-12-23T13:03:50.202Z,12.05
2022-12-23T13:09:10.597Z,13.52
2022-12-23T13:19:50.352Z,12.55
2022-12-23T13:25:14.040Z,11.73
2022-12-23T13:30:23.786Z,12.77
2022-12-23T13:36:10.726Z,12.80
2022-12-23T13:41:15.301Z,12.70
2022-12-23T13:46:41.492Z,13.38
2022-12-23T13:52:01.969Z,14.07
2022-12-23T13:57:15.813Z,14.00
2022-12-23T14:02:53.222Z,14.38
2022-12-23T14:07:55.058Z,15.80
2022-12-23T14:13:07.310Z,14.95
2022-12-23T14:18:37.047Z,15.23
2022-12-23T14:23:50.098Z,13.13
2022-12-23T14:29:24.613Z,12.90
2022-12-23T14:34:30.561Z,12.02
2022-12-23T14:39:33.820Z,11.60
2022-12-23T14:44:35.941Z,11.88
2022-12-23T14:49:45.892Z,12.57
2022-12-23T14:55:06.368Z,13.13
2022-12-23T15:00:10.360Z,12.98
2022-12-23T15:05:13.153Z,12.68
2022-12-23T15:10:17.554Z,12.65
2022-12-23T15:15:23.309Z,13.50
2022-12-23T15:20:26.077Z,13.35
2022-12-23T15:26:06.172Z,12.52
2022-12-23T15:31:26.470Z,12.88
2022-12-23T15:41:45.211Z,12.05
2022-12-23T15:46:47.247Z,14.43
2022-12-23T15:52:08.853Z,13.55
2022-12-23T15:57:51.399Z,23.13
2022-12-23T16:03:43.188Z,13.77
2022-12-23T16:08:45.831Z,10.30
2022-12-23T16:13:58.427Z,22.38
2022-12-23T16:19:02.354Z,15.88
2022-12-23T16:24:11.189Z,13.25
2022-12-23T16:29:15.000Z,10.60
2022-12-23T16:34:16.923Z,11.32
2022-12-23T16:39:23.168Z,13.15
2022-12-23T16:44:24.997Z,11.00
2022-12-23T16:49:33.443Z,13.32
2022-12-23T16:54:35.822Z,11.32
2022-12-23T16:59:41.070Z,12.15
2022-12-23T17:11:24.250Z,10.82
2022-12-23T17:16:26.369Z,10.20
2022-12-23T17:21:36.873Z,11.00
2022-12-23T17:26:39.418Z,12.45
2022-12-23T17:31:43.092Z,15.05
2022-12-23T17:36:49.980Z,12.90
2022-12-23T17:41:52.544Z,12.07
2022-12-23T17:46:54.584Z,12.40
2022-12-23T17:51:56.332Z,11.90
2022-12-23T17:56:58.306Z,12.57
2022-12-23T18:02:03.093Z,12.75
2022-12-23T18:07:06.309Z,13.40
2022-12-23T18:12:24.973Z,11.23
2022-12-23T18:17:27.750Z,6.88
2022-12-23T18:23:11.129Z,4.10
2022-12-23T18:28:13.477Z,2.97
2022-12-23T18:33:17.748Z,3.05
2022-12-23T18:38:19.502Z,3.72
2022-12-23T18:43:23.308Z,3.58
2022-12-23T18:48:37.262Z,3.90
2022-12-23T18:54:06.637Z,3.95
2022-12-23T18:59:29.591Z,3.58
2022-12-23T19:04:32.120Z,3.60
2022-12-23T19:09:34.104Z,4.63
2022-12-23T19:14:38.217Z,4.30
2022-12-23T19:19:40.026Z,5.18
2022-12-23T19:25:03.871Z,5.93
2022-12-23T19:30:10.753Z,4.32
2022-12-23T19:35:16.444Z,6.30
2022-12-23T19:40:18.930Z,6.32
2022-12-23T19:58:33.133Z,5.50
2022-12-23T20:03:38.201Z,5.22
2022-12-23T20:08:40.771Z,5.68
2022-12-23T20:14:21.718Z,5.10
2022-12-23T20:24:25.426Z,4.32
2022-12-23T20:29:27.337Z,5.10
2022-12-23T20:34:33.209Z,5.72
2022-12-23T20:39:38.552Z,4.67
2022-12-23T20:44:40.442Z,3.58
2022-12-23T20:49:42.337Z,4.32
2022-12-23T20:54:47.543Z,4.30
2022-12-23T20:59:51.704Z,3.60
2022-12-23T21:04:55.917Z,3.25
2022-12-23T21:16:38.174Z,2.60
2022-12-23T21:21:40.758Z,2.92
2022-12-23T21:26:55.730Z,2.30
2022-12-23T21:31:59.429Z,2.00
2022-12-23T21:37:01.354Z,2.35
2022-12-23T21:42:04.513Z,2.72
2022-12-23T21:47:06.304Z,2.20
2022-12-23T21:52:08.250Z,2.55
2022-12-23T21:57:10.028Z,3.88
2022-12-23T22:02:16.698Z,3.10
2022-12-23T22:07:18.487Z,2.88
2022-12-23T22:12:20.244Z,3.17
2022-12-23T22:17:22.032Z,4.57
2022-12-23T22:22:26.028Z,4.65
2022-12-23T22:27:27.762Z,5.85
2022-12-23T22:32:29.727Z,4.63
2022-12-23T22:37:32.148Z,5.15
2022-12-23T22:42:34.182Z,5.80
2022-12-23T22:47:36.038Z,4.03
2022-12-23T22:52:37.908Z,6.95
2022-12-23T22:57:39.725Z,5.75
2022-12-23T23:02:41.491Z,5.90
2022-12-23T23:07:43.403Z,6.45
2022-12-23T23:12:45.164Z,7.00
2022-12-23T23:17:47.212Z,6.40
2022-12-23T23:22:50.406Z,6.13
2022-12-23T23:27:52.171Z,6.03
2022-12-23T23:32:53.997Z,5.63
2022-12-23T23:37:56.646Z,6.15
2022-12-23T23:42:58.447Z,6.95
2022-12-23T23:48:00.214Z,5.55
2022-12-23T23:53:02.057Z,7.13
2022-12-23T23:58:04.823Z,6.07
